createdAt,value
2022-11-20T00:03:45.164Z,58.89
2022-11-20T00:08:49.707Z,58.82
2022-11-20T00:13:54.199Z,59.04
2022-11-20T00:18:57.158Z,58.92
2022-11-20T00:24:01.531Z,58.94
2022-11-20T00:29:04.876Z,59.17
2022-11-20T00:34:07.757Z,59.26
2022-11-20T00:39:11.911Z,59.36
2022-11-20T00:44:14.708Z,59.25
2022-11-20T00:49:17.583Z,59.24
2022-11-20T00:54:21.799Z,59.39
2022-11-20T00:59:24.807Z,59.42
2022-11-20T01:04:27.542Z,59.35
2022-11-20T01:09:31.642Z,59.41
2022-11-20T01:14:34.403Z,59.35
2022-11-20T01:19:37.171Z,59.53
2022-11-20T01:24:41.335Z,59.55
2022-11-20T01:29:44.034Z,59.60
2022-11-20T01:34:47.101Z,59.58
2022-11-20T01:39:51.189Z,59.63
2022-11-20T01:44:58.158Z,59.61
2022-11-20T01:50:04.990Z,59.79
2022-11-20T01:55:13.114Z,59.81
2022-11-20T02:00:18.295Z,59.84
2022-11-20T02:05:27.692Z,59.87
2022-11-20T02:10:32.058Z,59.99
2022-11-20T02:15:35.732Z,59.88
2022-11-20T02:20:39.037Z,59.85
2022-11-20T02:25:45.535Z,59.96
2022-11-20T02:30:48.272Z,60.11
2022-11-20T02:35:51.224Z,60.19
2022-11-20T02:40:55.855Z,60.35
2022-11-20T02:45:58.821Z,60.68
2022-11-20T02:51:01.583Z,61.19
2022-11-20T02:56:06.405Z,61.50
2022-11-20T03:01:09.209Z,62.00
2022-11-20T03:06:12.191Z,62.19
2022-11-20T03:11:16.843Z,62.58
2022-11-20T03:16:22.080Z,62.74
2022-11-20T03:21:24.880Z,62.99
2022-11-20T03:26:29.151Z,63.13
2022-11-20T03:31:33.424Z,63.27
2022-11-20T03:36:36.528Z,63.73
2022-11-20T03:41:43.088Z,63.81
2022-11-20T03:46:45.828Z,63.81
2022-11-20T03:51:48.677Z,64.20
2022-11-20T03:56:52.796Z,64.32
2022-11-20T04:01:55.588Z,64.81
2022-11-20T04:06:58.445Z,64.78
2022-11-20T04:12:02.588Z,64.85
2022-11-20T04:17:05.572Z,64.77
2022-11-20T04:22:08.354Z,64.94
2022-11-20T04:27:12.474Z,65.01
2022-11-20T04:32:15.262Z,65.27
2022-11-20T04:37:17.991Z,65.46
2022-11-20T04:42:30.791Z,65.72
2022-11-20T04:47:33.534Z,65.77
2022-11-20T04:52:36.393Z,66.10
2022-11-20T04:57:40.540Z,66.21
2022-11-20T05:02:43.320Z,66.49
2022-11-20T05:07:46.095Z,66.55
2022-11-20T05:12:50.242Z,66.60
2022-11-20T05:17:54.109Z,66.78
2022-11-20T05:22:58.757Z,67.14
2022-11-20T05:28:02.913Z,67.20
2022-11-20T05:33:05.651Z,67.31
2022-11-20T05:38:08.448Z,68.13
2022-11-20T05:43:12.558Z,67.95
2022-11-20T05:48:15.289Z,67.86
2022-11-20T05:53:18.023Z,68.39
2022-11-20T05:58:22.083Z,68.18
2022-11-20T06:03:24.825Z,68.30
2022-11-20T06:08:27.576Z,68.29
2022-11-20T06:13:31.640Z,68.46
2022-11-20T06:18:34.445Z,68.57
2022-11-20T06:23:38.384Z,68.43
2022-11-20T06:28:43.011Z,68.37
2022-11-20T06:33:46.258Z,68.52
2022-11-20T06:38:49.894Z,68.60
2022-11-20T06:43:54.044Z,68.37
2022-11-20T06:48:56.781Z,68.38
2022-11-20T06:53:59.548Z,68.44
2022-11-20T06:59:07.827Z,68.74
2022-11-20T07:04:10.591Z,68.69
2022-11-20T07:09:13.365Z,68.89
2022-11-20T07:14:17.484Z,68.59
2022-11-20T07:19:20.583Z,68.73
2022-11-20T07:24:23.599Z,68.89
2022-11-20T07:29:27.718Z,68.78
2022-11-20T07:34:30.451Z,68.67
2022-11-20T07:39:33.210Z,68.64
2022-11-20T07:44:37.644Z,69.00
2022-11-20T07:49:40.405Z,69.14
2022-11-20T07:54:43.240Z,69.38
2022-11-20T07:59:47.480Z,69.73
2022-11-20T08:04:50.282Z,69.62
2022-11-20T08:09:53.046Z,69.52
2022-11-20T08:14:59.867Z,69.58
2022-11-20T08:20:02.694Z,69.49
2022-11-20T08:25:06.285Z,69.64
2022-11-20T08:30:12.383Z,70.31
2022-11-20T08:35:15.162Z,70.88
2022-11-20T08:40:19.692Z,71.70
2022-11-20T08:45:24.270Z,46.95
2022-11-20T08:50:27.081Z,48.92
2022-11-20T08:55:29.834Z,48.40
2022-11-20T09:00:34.301Z,57.27
2022-11-20T09:05:37.142Z,57.73
2022-11-20T09:10:40.713Z,58.45
2022-11-20T09:15:44.775Z,59.62
2022-11-20T09:20:47.567Z,60.37
2022-11-20T09:25:50.371Z,60.69
2022-11-20T09:30:54.448Z,61.12
2022-11-20T09:35:57.196Z,61.69
2022-11-20T09:41:05.053Z,61.95
2022-11-20T09:46:16.888Z,62.49
2022-11-20T09:51:32.448Z,62.77
2022-11-20T09:56:39.836Z,62.68
2022-11-20T10:01:45.618Z,63.12
2022-11-20T10:07:30.681Z,63.12
2022-11-20T10:12:29.124Z,63.08
2022-11-20T10:18:00.931Z,62.98
2022-11-20T10:23:31.753Z,63.00
2022-11-20T10:28:57.162Z,62.70
2022-11-20T10:34:12.590Z,62.57
2022-11-20T10:39:25.016Z,62.46
2022-11-20T10:44:47.511Z,62.34
2022-11-20T10:49:55.170Z,62.22
2022-11-20T10:55:05.592Z,62.30
2022-11-20T11:00:10.981Z,62.21
2022-11-20T11:05:38.060Z,62.12
2022-11-20T11:10:48.487Z,62.21
2022-11-20T11:15:52.012Z,62.48
2022-11-20T11:20:57.130Z,62.36
2022-11-20T11:26:01.332Z,62.09
2022-11-20T11:31:04.151Z,62.11
2022-11-20T11:36:21.156Z,62.02
2022-11-20T11:41:27.811Z,62.04
2022-11-20T11:46:33.911Z,61.72
2022-11-20T11:51:47.893Z,61.65
2022-11-20T11:56:51.522Z,61.56
2022-11-20T12:01:59.658Z,61.56
2022-11-20T12:07:44.285Z,61.47
2022-11-20T12:12:42.196Z,61.48
2022-11-20T12:17:45.006Z,61.41
2022-11-20T12:22:57.950Z,61.46
2022-11-20T12:28:27.436Z,61.30
2022-11-20T12:33:56.811Z,61.35
2022-11-20T12:39:10.902Z,61.20
2022-11-20T12:44:46.366Z,61.24
2022-11-20T12:50:01.948Z,61.03
2022-11-20T12:55:19.011Z,60.86
2022-11-20T13:00:23.647Z,60.66
2022-11-20T13:05:33.505Z,60.83
2022-11-20T13:10:44.161Z,60.70
2022-11-20T13:15:56.853Z,60.38
2022-11-20T13:20:59.765Z,60.36
2022-11-20T13:26:16.889Z,59.61
2022-11-20T13:31:32.573Z,59.57
2022-11-20T13:36:37.475Z,59.17
2022-11-20T13:41:42.296Z,58.84
2022-11-20T13:46:47.177Z,58.89
2022-11-20T13:51:52.586Z,58.78
2022-11-20T13:57:06.686Z,58.71
2022-11-20T14:02:15.235Z,58.60
2022-11-20T14:07:19.907Z,58.45
2022-11-20T14:12:29.338Z,58.08
2022-11-20T14:17:34.148Z,57.42
2022-11-20T14:22:37.494Z,56.84
2022-11-20T14:27:44.064Z,56.37
2022-11-20T14:32:49.733Z,56.32
2022-11-20T14:37:53.361Z,56.81
2022-11-20T14:42:57.753Z,57.03
2022-11-20T14:48:01.885Z,57.51
2022-11-20T14:53:04.708Z,57.32
2022-11-20T14:58:23.276Z,57.33
2022-11-20T15:03:33.717Z,57.67
2022-11-20T15:08:36.716Z,57.48
2022-11-20T15:13:41.440Z,57.55
2022-11-20T15:18:44.243Z,57.58
2022-11-20T15:23:47.135Z,57.76
2022-11-20T15:28:51.527Z,57.64
2022-11-20T15:33:54.327Z,57.64
2022-11-20T15:38:57.096Z,57.50
2022-11-20T15:44:01.234Z,57.70
2022-11-20T15:49:04.468Z,57.62
2022-11-20T15:54:12.643Z,57.68
2022-11-20T15:59:17.217Z,57.47
2022-11-20T16:04:20.786Z,57.65
2022-11-20T16:09:23.830Z,57.51
2022-11-20T16:14:45.571Z,57.43
2022-11-20T16:19:48.382Z,57.26
2022-11-20T16:24:51.937Z,57.30
2022-11-20T16:29:56.064Z,57.41
2022-11-20T16:34:58.902Z,57.31
2022-11-20T16:40:01.640Z,57.31
2022-11-20T16:45:06.875Z,57.07
2022-11-20T16:50:10.663Z,57.03
2022-11-20T16:55:13.523Z,57.04
2022-11-20T17:00:18.061Z,56.91
2022-11-20T17:05:20.812Z,56.81
2022-11-20T17:10:23.873Z,56.86
2022-11-20T17:15:27.961Z,56.51
2022-11-20T17:20:32.259Z,56.37
2022-11-20T17:25:35.682Z,56.26
2022-11-20T17:30:39.900Z,55.49
2022-11-20T17:35:42.647Z,55.04
2022-11-20T17:40:46.246Z,55.17
2022-11-20T17:45:50.510Z,55.11
2022-11-20T17:50:53.318Z,55.11
2022-11-20T17:56:14.254Z,55.21
2022-11-20T18:01:19.228Z,55.04
2022-11-20T18:06:23.937Z,54.81
2022-11-20T18:11:28.687Z,54.74
2022-11-20T18:16:35.342Z,55.04
2022-11-20T18:21:38.639Z,55.09
2022-11-20T18:26:44.450Z,54.88
2022-11-20T18:31:48.913Z,54.94
2022-11-20T18:36:51.755Z,54.90
2022-11-20T18:42:12.057Z,54.92
2022-11-20T18:47:18.297Z,55.12
2022-11-20T18:52:23.474Z,54.87
2022-11-20T18:57:28.427Z,55.08
2022-11-20T19:02:36.603Z,55.08
2022-11-20T19:07:44.138Z,55.14
2022-11-20T19:12:47.029Z,54.86
2022-11-20T19:17:51.978Z,55.17
2022-11-20T19:22:54.919Z,55.33
2022-11-20T19:27:57.706Z,55.58
2022-11-20T19:33:01.915Z,55.95
2022-11-20T19:38:05.729Z,56.41
2022-11-20T19:43:08.615Z,56.53
2022-11-20T19:48:12.891Z,56.59
2022-11-20T19:53:15.811Z,56.76
2022-11-20T19:58:18.849Z,56.87
2022-11-20T20:03:23.296Z,56.96
2022-11-20T20:08:26.213Z,57.04
2022-11-20T20:13:29.046Z,57.27
2022-11-20T20:18:33.131Z,57.36
2022-11-20T20:23:36.476Z,57.39
2022-11-20T20:28:40.257Z,57.39
2022-11-20T20:33:45.311Z,57.61
2022-11-20T20:38:48.619Z,57.49
2022-11-20T20:44:09.133Z,57.63
2022-11-20T20:49:13.985Z,57.49
2022-11-20T20:54:16.908Z,57.44
2022-11-20T20:59:19.722Z,57.50
2022-11-20T21:04:24.127Z,57.24
2022-11-20T21:09:27.041Z,57.26
2022-11-20T21:14:29.819Z,57.22
2022-11-20T21:19:34.286Z,56.77
2022-11-20T21:24:37.821Z,57.34
2022-11-20T21:29:40.593Z,57.49
2022-11-20T21:34:44.734Z,57.56
2022-11-20T21:39:51.714Z,57.58
2022-11-20T21:44:54.473Z,57.62
2022-11-20T21:49:58.777Z,57.53
2022-11-20T21:55:01.573Z,57.68
2022-11-20T22:00:06.497Z,57.73
2022-11-20T22:05:14.561Z,57.65
2022-11-20T22:10:18.830Z,57.78
2022-11-20T22:15:45.837Z,57.68
2022-11-20T22:20:45.837Z,57.63
2022-11-20T22:25:48.691Z,57.89
2022-11-20T22:30:51.487Z,57.86
2022-11-20T22:36:00.886Z,57.67
2022-11-20T22:41:04.669Z,57.79
2022-11-20T22:46:08.963Z,57.89
2022-11-20T22:51:15.604Z,57.81
2022-11-20T22:56:19.233Z,57.87
2022-11-20T23:01:23.562Z,57.96
2022-11-20T23:06:28.117Z,57.96
2022-11-20T23:11:32.642Z,57.88
2022-11-20T23:16:36.142Z,58.10
2022-11-20T23:21:42.164Z,57.95
2022-11-20T23:26:46.921Z,58.11
2022-11-20T23:31:49.660Z,58.12
2022-11-20T23:36:53.881Z,58.32
2022-11-20T23:41:56.629Z,58.53
2022-11-20T23:46:59.431Z,58.43
2022-11-20T23:52:03.659Z,58.61
2022-11-20T23:57:06.446Z,58.79
